sensor_id;sensor_type;location;lat;lon;timestamp;pressure;altitude;pressure_sealevel;temperature;humidity
3122;BME280;1571;52.524;14.104;2023-04-27T00:00:26;101234.41;;;3.96;88.78
3122;BME280;1571;52.524;14.104;2023-04-27T00:02:54;101224.06;;;4.22;89.40
3122;BME280;1571;52.524;14.104;2023-04-27T00:05:23;101228.63;;;4.15;88.97
3122;BME280;1571;52.524;14.104;2023-04-27T00:07:51;101228.91;;;4.37;88.67
3122;BME280;1571;52.524;14.104;2023-04-27T00:10:19;101222.75;;;4.36;88.29
3122;BME280;1571;52.524;14.104;2023-04-27T00:12:48;101226.22;;;4.38;88.51
3122;BME280;1571;52.524;14.104;2023-04-27T00:15:17;101221.16;;;4.32;88.55
3122;BME280;1571;52.524;14.104;2023-04-27T00:17:46;101222.16;;;4.27;88.71
3122;BME280;1571;52.524;14.104;2023-04-27T00:20:14;101221.31;;;4.26;89.29
3122;BME280;1571;52.524;14.104;2023-04-27T00:22:43;101218.81;;;4.22;89.13
3122;BME280;1571;52.524;14.104;2023-04-27T00:25:11;101218.69;;;4.26;89.25
3122;BME280;1571;52.524;14.104;2023-04-27T00:27:39;101214.25;;;4.28;90.52
3122;BME280;1571;52.524;14.104;2023-04-27T00:30:09;101219.81;;;4.17;91.24
3122;BME280;1571;52.524;14.104;2023-04-27T00:32:38;101217.19;;;4.17;90.81
3122;BME280;1571;52.524;14.104;2023-04-27T00:35:09;101210.28;;;4.13;91.36
3122;BME280;1571;52.524;14.104;2023-04-27T00:37:37;101221.09;;;4.03;92.37
3122;BME280;1571;52.524;14.104;2023-04-27T00:40:06;101207.53;;;4.18;93.44
3122;BME280;1571;52.524;14.104;2023-04-27T00:42:35;101222.88;;;4.01;93.74
3122;BME280;1571;52.524;14.104;2023-04-27T00:45:04;101219.16;;;4.09;94.21
3122;BME280;1571;52.524;14.104;2023-04-27T00:47:33;101224.38;;;4.11;93.55
3122;BME280;1571;52.524;14.104;2023-04-27T00:50:03;101229.22;;;3.93;94.14
3122;BME280;1571;52.524;14.104;2023-04-27T00:52:35;101236.72;;;4.07;93.88
3122;BME280;1571;52.524;14.104;2023-04-27T00:55:04;101232.16;;;4.14;93.33
3122;BME280;1571;52.524;14.104;2023-04-27T00:57:33;101229.22;;;4.25;92.23
3122;BME280;1571;52.524;14.104;2023-04-27T01:00:04;101228.63;;;4.15;92.04
3122;BME280;1571;52.524;14.104;2023-04-27T01:02:33;101229.88;;;4.02;91.49
3122;BME280;1571;52.524;14.104;2023-04-27T01:05:04;101233.16;;;4.10;91.20
3122;BME280;1571;52.524;14.104;2023-04-27T01:07:36;101223.91;;;3.96;91.13
3122;BME280;1571;52.524;14.104;2023-04-27T01:10:05;101227.53;;;4.24;91.03
3122;BME280;1571;52.524;14.104;2023-04-27T01:12:34;101228.28;;;4.27;91.12
3122;BME280;1571;52.524;14.104;2023-04-27T01:15:05;101228.38;;;4.24;91.30
3122;BME280;1571;52.524;14.104;2023-04-27T01:17:34;101235.91;;;4.05;92.41
3122;BME280;1571;52.524;14.104;2023-04-27T01:20:06;101233.72;;;4.21;92.13
3122;BME280;1571;52.524;14.104;2023-04-27T01:22:36;101241.00;;;4.11;92.20
3122;BME280;1571;52.524;14.104;2023-04-27T01:25:07;101244.41;;;4.15;91.91
3122;BME280;1571;52.524;14.104;2023-04-27T01:27:36;101240.78;;;4.19;92.12
3122;BME280;1571;52.524;14.104;2023-04-27T01:30:06;101244.19;;;4.23;91.92
3122;BME280;1571;52.524;14.104;2023-04-27T01:32:36;101245.03;;;4.23;92.25
3122;BME280;1571;52.524;14.104;2023-04-27T01:35:04;101242.47;;;4.22;92.24
3122;BME280;1571;52.524;14.104;2023-04-27T01:37:33;101247.03;;;4.15;91.71
3122;BME280;1571;52.524;14.104;2023-04-27T01:40:01;101241.56;;;4.23;92.52
3122;BME280;1571;52.524;14.104;2023-04-27T01:42:32;101246.81;;;4.23;92.74
3122;BME280;1571;52.524;14.104;2023-04-27T01:45:01;101248.03;;;4.11;93.90
3122;BME280;1571;52.524;14.104;2023-04-27T01:47:31;101247.59;;;4.26;94.44
3122;BME280;1571;52.524;14.104;2023-04-27T01:49:59;101251.03;;;4.28;94.25
3122;BME280;1571;52.524;14.104;2023-04-27T01:52:27;101246.63;;;4.30;94.84
3122;BME280;1571;52.524;14.104;2023-04-27T01:54:56;101251.91;;;4.29;94.93
3122;BME280;1571;52.524;14.104;2023-04-27T01:57:24;101261.38;;;4.34;95.47
3122;BME280;1571;52.524;14.104;2023-04-27T01:59:55;101258.88;;;4.30;95.55
3122;BME280;1571;52.524;14.104;2023-04-27T02:02:23;101252.59;;;4.35;95.60
3122;BME280;1571;52.524;14.104;2023-04-27T02:04:52;101259.50;;;4.40;95.63
3122;BME280;1571;52.524;14.104;2023-04-27T02:07:20;101266.41;;;4.44;95.86
3122;BME280;1571;52.524;14.104;2023-04-27T02:09:49;101257.69;;;4.42;96.04
3122;BME280;1571;52.524;14.104;2023-04-27T02:12:17;101259.44;;;4.41;95.73
3122;BME280;1571;52.524;14.104;2023-04-27T02:14:45;101267.41;;;4.38;95.49
3122;BME280;1571;52.524;14.104;2023-04-27T02:17:14;101269.91;;;4.43;95.64
3122;BME280;1571;52.524;14.104;2023-04-27T02:19:43;101278.66;;;4.43;94.75
3122;BME280;1571;52.524;14.104;2023-04-27T02:22:11;101279.75;;;4.36;94.36
3122;BME280;1571;52.524;14.104;2023-04-27T02:24:39;101277.97;;;4.36;93.99
3122;BME280;1571;52.524;14.104;2023-04-27T02:27:07;101280.69;;;4.33;93.34
3122;BME280;1571;52.524;14.104;2023-04-27T02:29:36;101279.44;;;4.47;93.08
3122;BME280;1571;52.524;14.104;2023-04-27T02:32:05;101282.16;;;4.44;93.58
3122;BME280;1571;52.524;14.104;2023-04-27T02:34:35;101287.06;;;4.25;93.80
3122;BME280;1571;52.524;14.104;2023-04-27T02:37:03;101287.22;;;4.50;93.89
3122;BME280;1571;52.524;14.104;2023-04-27T02:39:31;101286.03;;;4.30;93.37
3122;BME280;1571;52.524;14.104;2023-04-27T02:41:59;101290.38;;;4.31;93.26
3122;BME280;1571;52.524;14.104;2023-04-27T02:44:28;101288.97;;;4.51;93.31
3122;BME280;1571;52.524;14.104;2023-04-27T02:46:57;101292.59;;;4.47;93.58
3122;BME280;1571;52.524;14.104;2023-04-27T02:49:25;101290.84;;;4.46;93.71
3122;BME280;1571;52.524;14.104;2023-04-27T02:51:55;101292.00;;;4.37;93.43
3122;BME280;1571;52.524;14.104;2023-04-27T02:54:23;101289.22;;;4.42;93.06
3122;BME280;1571;52.524;14.104;2023-04-27T02:56:52;101294.66;;;4.35;92.60
3122;BME280;1571;52.524;14.104;2023-04-27T02:59:20;101294.50;;;4.42;92.86
3122;BME280;1571;52.524;14.104;2023-04-27T03:01:49;101293.47;;;4.46;93.28
3122;BME280;1571;52.524;14.104;2023-04-27T03:04:17;101295.66;;;4.30;94.13
3122;BME280;1571;52.524;14.104;2023-04-27T03:06:47;101295.50;;;4.36;94.47
3122;BME280;1571;52.524;14.104;2023-04-27T03:09:17;101293.59;;;4.41;95.56
3122;BME280;1571;52.524;14.104;2023-04-27T03:11:45;101300.06;;;4.29;95.00
3122;BME280;1571;52.524;14.104;2023-04-27T03:14:13;101294.75;;;4.32;94.39
3122;BME280;1571;52.524;14.104;2023-04-27T03:16:41;101291.31;;;4.30;94.00
3122;BME280;1571;52.524;14.104;2023-04-27T03:19:12;101294.97;;;4.23;93.86
3122;BME280;1571;52.524;14.104;2023-04-27T03:21:41;101303.69;;;4.25;93.46
3122;BME280;1571;52.524;14.104;2023-04-27T03:24:09;101296.75;;;4.23;93.40
3122;BME280;1571;52.524;14.104;2023-04-27T03:26:39;101305.44;;;4.25;94.03
3122;BME280;1571;52.524;14.104;2023-04-27T03:29:07;101310.75;;;4.23;93.88
3122;BME280;1571;52.524;14.104;2023-04-27T03:31:35;101308.63;;;4.37;93.44
3122;BME280;1571;52.524;14.104;2023-04-27T03:34:04;101308.69;;;4.34;93.67
3122;BME280;1571;52.524;14.104;2023-04-27T03:36:32;101307.91;;;4.32;93.67
3122;BME280;1571;52.524;14.104;2023-04-27T03:39:00;101303.53;;;4.31;94.35
3122;BME280;1571;52.524;14.104;2023-04-27T03:41:29;101315.09;;;4.26;94.67
3122;BME280;1571;52.524;14.104;2023-04-27T03:43:59;101317.59;;;4.30;95.55
3122;BME280;1571;52.524;14.104;2023-04-27T03:46:27;101311.44;;;4.30;96.08
3122;BME280;1571;52.524;14.104;2023-04-27T03:48:56;101319.19;;;4.34;96.10
3122;BME280;1571;52.524;14.104;2023-04-27T03:51:24;101322.03;;;4.28;96.22
3122;BME280;1571;52.524;14.104;2023-04-27T03:53:52;101326.28;;;4.32;96.19
3122;BME280;1571;52.524;14.104;2023-04-27T03:56:22;101327.22;;;4.30;96.88
3122;BME280;1571;52.524;14.104;2023-04-27T03:58:50;101327.41;;;4.24;96.85
3122;BME280;1571;52.524;14.104;2023-04-27T04:01:21;101338.53;;;4.33;97.58
3122;BME280;1571;52.524;14.104;2023-04-27T04:03:50;101333.34;;;4.30;97.96
3122;BME280;1571;52.524;14.104;2023-04-27T04:06:19;101333.16;;;4.36;97.76
3122;BME280;1571;52.524;14.104;2023-04-27T04:08:47;101339.44;;;4.32;97.46
3122;BME280;1571;52.524;14.104;2023-04-27T04:11:17;101338.28;;;4.41;96.96
3122;BME280;1571;52.524;14.104;2023-04-27T04:13:46;101346.25;;;4.40;96.59
3122;BME280;1571;52.524;14.104;2023-04-27T04:16:14;101357.66;;;4.38;96.71
3122;BME280;1571;52.524;14.104;2023-04-27T04:18:44;101353.88;;;4.49;96.53
3122;BME280;1571;52.524;14.104;2023-04-27T04:21:12;101358.28;;;4.48;96.67
3122;BME280;1571;52.524;14.104;2023-04-27T04:23:41;101357.22;;;4.55;96.69
3122;BME280;1571;52.524;14.104;2023-04-27T04:26:09;101362.47;;;4.55;96.06
3122;BME280;1571;52.524;14.104;2023-04-27T04:28:39;101351.72;;;4.63;95.85
3122;BME280;1571;52.524;14.104;2023-04-27T04:31:08;101366.09;;;4.50;95.77
3122;BME280;1571;52.524;14.104;2023-04-27T04:33:36;101353.53;;;4.61;95.58
3122;BME280;1571;52.524;14.104;2023-04-27T04:36:06;101371.34;;;4.83;94.76
3122;BME280;1571;52.524;14.104;2023-04-27T04:38:35;101360.91;;;4.79;94.31
3122;BME280;1571;52.524;14.104;2023-04-27T04:41:04;101376.59;;;4.84;94.09
3122;BME280;1571;52.524;14.104;2023-04-27T04:43:33;101364.72;;;4.99;93.93
3122;BME280;1571;52.524;14.104;2023-04-27T04:46:04;101362.81;;;5.04;93.38
3122;BME280;1571;52.524;14.104;2023-04-27T04:48:33;101363.59;;;5.08;92.75
3122;BME280;1571;52.524;14.104;2023-04-27T04:51:03;101368.63;;;5.15;92.38
3122;BME280;1571;52.524;14.104;2023-04-27T04:53:34;101374.63;;;5.20;92.55
3122;BME280;1571;52.524;14.104;2023-04-27T04:56:09;101367.22;;;5.04;92.18
3122;BME280;1571;52.524;14.104;2023-04-27T04:58:38;101371.13;;;5.20;92.56
3122;BME280;1571;52.524;14.104;2023-04-27T05:01:07;101375.47;;;5.22;92.07
3122;BME280;1571;52.524;14.104;2023-04-27T05:03:35;101383.97;;;5.31;91.49
3122;BME280;1571;52.524;14.104;2023-04-27T05:06:04;101377.00;;;5.30;91.14
3122;BME280;1571;52.524;14.104;2023-04-27T05:08:34;101378.09;;;5.22;90.78
3122;BME280;1571;52.524;14.104;2023-04-27T05:11:03;101381.84;;;5.43;89.71
3122;BME280;1571;52.524;14.104;2023-04-27T05:13:31;101384.91;;;5.28;89.55
3122;BME280;1571;52.524;14.104;2023-04-27T05:16:02;101388.66;;;5.49;89.41
3122;BME280;1571;52.524;14.104;2023-04-27T05:18:31;101391.22;;;5.52;89.00
3122;BME280;1571;52.524;14.104;2023-04-27T05:20:59;101396.69;;;5.74;88.67
3122;BME280;1571;52.524;14.104;2023-04-27T05:23:27;101390.63;;;5.71;87.41
3122;BME280;1571;52.524;14.104;2023-04-27T05:25:57;101401.00;;;5.77;87.11
3122;BME280;1571;52.524;14.104;2023-04-27T05:28:25;101392.16;;;5.78;86.70
3122;BME280;1571;52.524;14.104;2023-04-27T05:30:53;101385.78;;;5.85;86.58
3122;BME280;1571;52.524;14.104;2023-04-27T05:33:21;101392.81;;;5.84;86.35
3122;BME280;1571;52.524;14.104;2023-04-27T05:35:49;101399.56;;;5.93;86.35
3122;BME280;1571;52.524;14.104;2023-04-27T05:38:18;101395.50;;;6.11;86.07
3122;BME280;1571;52.524;14.104;2023-04-27T05:40:46;101402.34;;;6.17;86.03
3122;BME280;1571;52.524;14.104;2023-04-27T05:43:15;101392.66;;;6.17;84.95
3122;BME280;1571;52.524;14.104;2023-04-27T05:45:43;101399.91;;;6.37;84.21
3122;BME280;1571;52.524;14.104;2023-04-27T05:48:12;101396.03;;;6.21;82.49
3122;BME280;1571;52.524;14.104;2023-04-27T05:50:41;101402.94;;;6.25;82.60
3122;BME280;1571;52.524;14.104;2023-04-27T05:53:09;101393.00;;;6.58;81.77
3122;BME280;1571;52.524;14.104;2023-04-27T05:55:37;101391.22;;;6.59;81.18
3122;BME280;1571;52.524;14.104;2023-04-27T05:58:05;101393.81;;;6.60;80.65
3122;BME280;1571;52.524;14.104;2023-04-27T06:00:36;101399.78;;;6.40;80.76
3122;BME280;1571;52.524;14.104;2023-04-27T06:03:05;101391.88;;;6.65;80.96
3122;BME280;1571;52.524;14.104;2023-04-27T06:05:33;101402.91;;;6.77;79.13
3122;BME280;1571;52.524;14.104;2023-04-27T06:08:01;101394.56;;;6.89;77.20
3122;BME280;1571;52.524;14.104;2023-04-27T06:10:30;101399.13;;;6.84;77.79
3122;BME280;1571;52.524;14.104;2023-04-27T06:12:58;101399.66;;;6.94;76.80
3122;BME280;1571;52.524;14.104;2023-04-27T06:15:26;101391.63;;;6.97;76.24
3122;BME280;1571;52.524;14.104;2023-04-27T06:17:56;101401.72;;;7.09;75.57
3122;BME280;1571;52.524;14.104;2023-04-27T06:20:24;101409.22;;;6.47;75.71
3122;BME280;1571;52.524;14.104;2023-04-27T06:22:52;101407.00;;;6.60;76.22
3122;BME280;1571;52.524;14.104;2023-04-27T06:25:21;101418.41;;;6.61;76.21
3122;BME280;1571;52.524;14.104;2023-04-27T06:27:53;101422.88;;;6.59;76.88
3122;BME280;1571;52.524;14.104;2023-04-27T06:30:21;101422.69;;;6.65;76.08
3122;BME280;1571;52.524;14.104;2023-04-27T06:32:50;101428.47;;;6.50;76.84
3122;BME280;1571;52.524;14.104;2023-04-27T06:35:20;101427.59;;;6.76;75.66
3122;BME280;1571;52.524;14.104;2023-04-27T06:37:48;101424.06;;;6.75;74.94
3122;BME280;1571;52.524;14.104;2023-04-27T06:40:17;101422.84;;;6.35;74.54
3122;BME280;1571;52.524;14.104;2023-04-27T06:42:45;101431.72;;;6.58;74.99
3122;BME280;1571;52.524;14.104;2023-04-27T06:45:14;101421.25;;;7.05;73.73
3122;BME280;1571;52.524;14.104;2023-04-27T06:47:42;101418.16;;;7.41;73.51
3122;BME280;1571;52.524;14.104;2023-04-27T06:50:10;101414.63;;;7.86;70.90
3122;BME280;1571;52.524;14.104;2023-04-27T06:52:40;101416.69;;;8.00;69.73
3122;BME280;1571;52.524;14.104;2023-04-27T06:55:08;101408.44;;;8.07;68.63
3122;BME280;1571;52.524;14.104;2023-04-27T06:57:37;101410.63;;;8.40;69.03
3122;BME280;1571;52.524;14.104;2023-04-27T07:00:06;101404.44;;;9.01;67.29
3122;BME280;1571;52.524;14.104;2023-04-27T07:02:34;101420.38;;;9.18;65.49
3122;BME280;1571;52.524;14.104;2023-04-27T07:05:03;101419.88;;;8.28;66.06
3122;BME280;1571;52.524;14.104;2023-04-27T07:07:31;101421.28;;;9.19;66.71
3122;BME280;1571;52.524;14.104;2023-04-27T07:10:01;101430.59;;;8.88;66.07
3122;BME280;1571;52.524;14.104;2023-04-27T07:12:30;101443.97;;;8.22;67.64
3122;BME280;1571;52.524;14.104;2023-04-27T07:14:58;101439.81;;;7.72;67.36
3122;BME280;1571;52.524;14.104;2023-04-27T07:17:28;101443.75;;;8.06;67.32
3122;BME280;1571;52.524;14.104;2023-04-27T07:19:56;101443.38;;;8.16;67.92
3122;BME280;1571;52.524;14.104;2023-04-27T07:22:24;101440.00;;;8.54;65.82
3122;BME280;1571;52.524;14.104;2023-04-27T07:24:52;101432.59;;;8.63;64.29
3122;BME280;1571;52.524;14.104;2023-04-27T07:27:22;101434.09;;;8.48;63.03
3122;BME280;1571;52.524;14.104;2023-04-27T07:29:50;101440.16;;;8.51;63.88
3122;BME280;1571;52.524;14.104;2023-04-27T07:32:19;101442.63;;;8.75;63.15
3122;BME280;1571;52.524;14.104;2023-04-27T07:34:48;101438.00;;;8.60;63.11
3122;BME280;1571;52.524;14.104;2023-04-27T07:37:20;101434.81;;;8.92;63.47
3122;BME280;1571;52.524;14.104;2023-04-27T07:39:49;101442.47;;;9.19;62.23
3122;BME280;1571;52.524;14.104;2023-04-27T07:42:19;101439.72;;;9.21;61.22
3122;BME280;1571;52.524;14.104;2023-04-27T07:44:49;101428.84;;;9.08;60.08
3122;BME280;1571;52.524;14.104;2023-04-27T07:47:18;101436.81;;;8.87;60.46
3122;BME280;1571;52.524;14.104;2023-04-27T07:49:46;101438.97;;;8.98;61.10
3122;BME280;1571;52.524;14.104;2023-04-27T07:52:15;101454.13;;;8.11;62.11
3122;BME280;1571;52.524;14.104;2023-04-27T07:54:43;101458.97;;;8.22;62.45
3122;BME280;1571;52.524;14.104;2023-04-27T07:57:11;101458.31;;;8.59;62.48
3122;BME280;1571;52.524;14.104;2023-04-27T07:59:39;101463.03;;;8.73;61.64
3122;BME280;1571;52.524;14.104;2023-04-27T08:02:09;101458.78;;;9.10;61.38
3122;BME280;1571;52.524;14.104;2023-04-27T08:04:43;101476.19;;;7.88;61.54
3122;BME280;1571;52.524;14.104;2023-04-27T08:07:13;101474.22;;;8.37;62.46
3122;BME280;1571;52.524;14.104;2023-04-27T08:09:42;101474.81;;;8.66;61.79
3122;BME280;1571;52.524;14.104;2023-04-27T08:12:10;101469.38;;;8.69;59.79
3122;BME280;1571;52.524;14.104;2023-04-27T08:14:39;101472.56;;;8.77;60.01
3122;BME280;1571;52.524;14.104;2023-04-27T08:17:08;101476.84;;;8.59;60.31
3122;BME280;1571;52.524;14.104;2023-04-27T08:19:37;101468.31;;;8.73;60.65
3122;BME280;1571;52.524;14.104;2023-04-27T08:22:05;101468.06;;;8.79;60.71
3122;BME280;1571;52.524;14.104;2023-04-27T08:24:34;101475.97;;;9.20;61.88
3122;BME280;1571;52.524;14.104;2023-04-27T08:27:04;101469.00;;;9.17;60.33
3122;BME280;1571;52.524;14.104;2023-04-27T08:29:33;101472.66;;;9.15;60.42
3122;BME280;1571;52.524;14.104;2023-04-27T08:32:02;101482.19;;;8.58;60.73
3122;BME280;1571;52.524;14.104;2023-04-27T08:34:32;101483.56;;;8.68;59.78
3122;BME280;1571;52.524;14.104;2023-04-27T08:37:00;101470.56;;;8.62;59.71
3122;BME280;1571;52.524;14.104;2023-04-27T08:39:30;101474.34;;;8.56;60.71
3122;BME280;1571;52.524;14.104;2023-04-27T08:41:58;101493.06;;;8.29;60.48
3122;BME280;1571;52.524;14.104;2023-04-27T08:44:27;101484.22;;;8.08;60.49
3122;BME280;1571;52.524;14.104;2023-04-27T08:46:56;101486.06;;;8.06;60.59
3122;BME280;1571;52.524;14.104;2023-04-27T08:49:24;101492.69;;;8.17;60.51
3122;BME280;1571;52.524;14.104;2023-04-27T08:51:54;101485.13;;;8.51;60.91
3122;BME280;1571;52.524;14.104;2023-04-27T08:54:22;101474.59;;;8.91;59.38
3122;BME280;1571;52.524;14.104;2023-04-27T08:56:51;101483.16;;;8.98;59.45
3122;BME280;1571;52.524;14.104;2023-04-27T08:59:19;101480.63;;;8.94;58.92
3122;BME280;1571;52.524;14.104;2023-04-27T09:01:48;101482.25;;;8.78;59.58
3122;BME280;1571;52.524;14.104;2023-04-27T09:04:17;101490.81;;;8.42;59.94
3122;BME280;1571;52.524;14.104;2023-04-27T09:06:45;101496.09;;;8.42;60.74
3122;BME280;1571;52.524;14.104;2023-04-27T09:09:23;101497.59;;;8.26;61.84
3122;BME280;1571;52.524;14.104;2023-04-27T09:11:51;101498.97;;;8.14;62.70
3122;BME280;1571;52.524;14.104;2023-04-27T09:14:21;101494.66;;;8.11;63.07
3122;BME280;1571;52.524;14.104;2023-04-27T09:16:53;101500.38;;;8.01;64.02
3122;BME280;1571;52.524;14.104;2023-04-27T09:19:24;101500.81;;;8.12;64.81
3122;BME280;1571;52.524;14.104;2023-04-27T09:22:02;101494.91;;;8.05;64.08
3122;BME280;1571;52.524;14.104;2023-04-27T09:24:32;101496.59;;;8.28;64.14
3122;BME280;1571;52.524;14.104;2023-04-27T09:27:02;101481.00;;;8.44;63.53
3122;BME280;1571;52.524;14.104;2023-04-27T09:29:31;101472.41;;;9.21;61.51
3122;BME280;1571;52.524;14.104;2023-04-27T09:32:00;101465.94;;;9.27;60.06
3122;BME280;1571;52.524;14.104;2023-04-27T09:34:39;101463.09;;;9.31;59.36
3122;BME280;1571;52.524;14.104;2023-04-27T09:37:08;101461.91;;;9.18;58.88
3122;BME280;1571;52.524;14.104;2023-04-27T09:39:38;101465.28;;;8.82;58.74
3122;BME280;1571;52.524;14.104;2023-04-27T09:42:07;101466.63;;;8.72;58.82
3122;BME280;1571;52.524;14.104;2023-04-27T09:44:35;101472.34;;;8.61;59.94
3122;BME280;1571;52.524;14.104;2023-04-27T09:47:05;101476.41;;;8.70;60.80
3122;BME280;1571;52.524;14.104;2023-04-27T09:49:33;101488.84;;;8.68;61.95
3122;BME280;1571;52.524;14.104;2023-04-27T09:52:02;101474.66;;;9.10;60.64
3122;BME280;1571;52.524;14.104;2023-04-27T09:54:32;101463.41;;;9.44;59.23
3122;BME280;1571;52.524;14.104;2023-04-27T09:57:11;101457.44;;;9.58;59.59
3122;BME280;1571;52.524;14.104;2023-04-27T10:00:00;101466.84;;;9.84;59.84
3122;BME280;1571;52.524;14.104;2023-04-27T10:02:41;101451.50;;;10.08;57.43
3122;BME280;1571;52.524;14.104;2023-04-27T10:05:38;101448.72;;;9.75;57.60
3122;BME280;1571;52.524;14.104;2023-04-27T10:08:09;101441.59;;;9.75;56.90
3122;BME280;1571;52.524;14.104;2023-04-27T10:10:42;101443.94;;;9.82;57.12
3122;BME280;1571;52.524;14.104;2023-04-27T10:13:22;101438.44;;;9.86;55.10
3122;BME280;1571;52.524;14.104;2023-04-27T10:15:52;101437.09;;;9.77;55.59
3122;BME280;1571;52.524;14.104;2023-04-27T10:18:25;101430.09;;;9.94;54.84
3122;BME280;1571;52.524;14.104;2023-04-27T10:20:54;101421.19;;;9.95;54.59
3122;BME280;1571;52.524;14.104;2023-04-27T10:23:23;101421.06;;;9.98;54.18
3122;BME280;1571;52.524;14.104;2023-04-27T10:25:53;101424.00;;;9.55;53.69
3122;BME280;1571;52.524;14.104;2023-04-27T10:28:23;101422.56;;;10.21;54.44
3122;BME280;1571;52.524;14.104;2023-04-27T10:30:51;101411.22;;;10.54;53.11
3122;BME280;1571;52.524;14.104;2023-04-27T10:33:21;101387.97;;;10.92;51.68
3122;BME280;1571;52.524;14.104;2023-04-27T10:35:54;101393.41;;;10.89;51.69
3122;BME280;1571;52.524;14.104;2023-04-27T10:38:26;101381.47;;;11.61;52.33
3122;BME280;1571;52.524;14.104;2023-04-27T10:40:56;101393.34;;;11.72;52.75
3122;BME280;1571;52.524;14.104;2023-04-27T10:43:28;101391.91;;;12.12;51.74
3122;BME280;1571;52.524;14.104;2023-04-27T10:46:06;101387.09;;;12.92;50.17
3122;BME280;1571;52.524;14.104;2023-04-27T10:48:36;101379.75;;;12.53;49.27
3122;BME280;1571;52.524;14.104;2023-04-27T10:51:04;101382.13;;;12.13;49.40
3122;BME280;1571;52.524;14.104;2023-04-27T10:53:33;101389.88;;;11.85;49.85
3122;BME280;1571;52.524;14.104;2023-04-27T10:56:02;101392.41;;;12.19;50.69
3122;BME280;1571;52.524;14.104;2023-04-27T10:58:34;101390.47;;;12.37;50.66
3122;BME280;1571;52.524;14.104;2023-04-27T11:01:22;101391.59;;;11.55;49.46
3122;BME280;1571;52.524;14.104;2023-04-27T11:03:54;101400.53;;;11.54;50.47
3122;BME280;1571;52.524;14.104;2023-04-27T11:06:22;101402.91;;;12.06;51.63
3122;BME280;1571;52.524;14.104;2023-04-27T11:08:50;101379.25;;;11.85;47.79
3122;BME280;1571;52.524;14.104;2023-04-27T11:11:20;101378.81;;;11.77;48.16
3122;BME280;1571;52.524;14.104;2023-04-27T11:13:50;101382.69;;;11.87;48.48
3122;BME280;1571;52.524;14.104;2023-04-27T11:16:19;101386.13;;;11.26;48.00
3122;BME280;1571;52.524;14.104;2023-04-27T11:18:47;101396.38;;;11.00;49.40
3122;BME280;1571;52.524;14.104;2023-04-27T11:21:17;101393.88;;;10.97;49.07
3122;BME280;1571;52.524;14.104;2023-04-27T11:23:46;101390.38;;;10.97;49.16
3122;BME280;1571;52.524;14.104;2023-04-27T11:26:15;101394.97;;;11.27;48.19
3122;BME280;1571;52.524;14.104;2023-04-27T11:28:56;101380.47;;;11.32;47.09
3122;BME280;1571;52.524;14.104;2023-04-27T11:31:26;101386.28;;;12.47;47.37
3122;BME280;1571;52.524;14.104;2023-04-27T11:33:55;101374.56;;;12.65;46.01
3122;BME280;1571;52.524;14.104;2023-04-27T11:36:23;101374.19;;;11.97;46.69
3122;BME280;1571;52.524;14.104;2023-04-27T11:38:56;101384.59;;;11.54;47.15
3122;BME280;1571;52.524;14.104;2023-04-27T11:41:32;101391.09;;;11.32;48.39
3122;BME280;1571;52.524;14.104;2023-04-27T11:44:05;101393.66;;;11.18;47.68
3122;BME280;1571;52.524;14.104;2023-04-27T11:46:36;101398.25;;;10.98;47.08
3122;BME280;1571;52.524;14.104;2023-04-27T11:49:06;101404.28;;;11.18;48.39
3122;BME280;1571;52.524;14.104;2023-04-27T11:51:34;101397.63;;;11.74;47.01
3122;BME280;1571;52.524;14.104;2023-04-27T11:54:04;101390.41;;;11.76;45.65
3122;BME280;1571;52.524;14.104;2023-04-27T11:56:34;101394.50;;;11.98;46.49
3122;BME280;1571;52.524;14.104;2023-04-27T11:59:03;101403.19;;;11.70;47.39
3122;BME280;1571;52.524;14.104;2023-04-27T12:01:32;101403.97;;;11.24;47.92
3122;BME280;1571;52.524;14.104;2023-04-27T12:04:05;101427.53;;;10.81;50.43
3122;BME280;1571;52.524;14.104;2023-04-27T12:06:34;101423.50;;;10.90;50.73
3122;BME280;1571;52.524;14.104;2023-04-27T12:09:03;101429.84;;;10.87;50.01
3122;BME280;1571;52.524;14.104;2023-04-27T12:11:32;101426.44;;;11.01;50.68
3122;BME280;1571;52.524;14.104;2023-04-27T12:14:01;101432.22;;;11.09;50.46
3122;BME280;1571;52.524;14.104;2023-04-27T12:16:29;101429.81;;;11.04;49.90
3122;BME280;1571;52.524;14.104;2023-04-27T12:18:57;101448.81;;;10.97;52.20
3122;BME280;1571;52.524;14.104;2023-04-27T12:21:27;101439.91;;;11.47;50.98
3122;BME280;1571;52.524;14.104;2023-04-27T12:23:55;101428.19;;;11.99;49.44
3122;BME280;1571;52.524;14.104;2023-04-27T12:26:23;101418.78;;;12.23;48.28
3122;BME280;1571;52.524;14.104;2023-04-27T12:28:52;101414.34;;;12.08;47.79
3122;BME280;1571;52.524;14.104;2023-04-27T12:31:21;101413.38;;;12.09;46.97
3122;BME280;1571;52.524;14.104;2023-04-27T12:33:53;101417.09;;;11.91;46.95
3122;BME280;1571;52.524;14.104;2023-04-27T12:36:22;101403.25;;;12.00;45.75
3122;BME280;1571;52.524;14.104;2023-04-27T12:38:52;101403.13;;;11.71;45.69
3122;BME280;1571;52.524;14.104;2023-04-27T12:41:20;101410.31;;;11.69;46.60
3122;BME280;1571;52.524;14.104;2023-04-27T12:43:49;101415.13;;;11.31;46.10
3122;BME280;1571;52.524;14.104;2023-04-27T12:46:17;101423.13;;;11.13;46.22
3122;BME280;1571;52.524;14.104;2023-04-27T12:48:46;101423.09;;;10.97;46.27
3122;BME280;1571;52.524;14.104;2023-04-27T12:51:14;101418.81;;;11.28;46.43
3122;BME280;1571;52.524;14.104;2023-04-27T12:53:42;101417.34;;;11.38;46.30
3122;BME280;1571;52.524;14.104;2023-04-27T12:56:12;101426.91;;;11.09;47.02
3122;BME280;1571;52.524;14.104;2023-04-27T12:58:40;101419.59;;;11.46;47.38
3122;BME280;1571;52.524;14.104;2023-04-27T13:01:08;101430.13;;;11.48;47.67
3122;BME280;1571;52.524;14.104;2023-04-27T13:03:41;101429.97;;;11.01;46.58
3122;BME280;1571;52.524;14.104;2023-04-27T13:06:10;101427.69;;;11.11;47.94
3122;BME280;1571;52.524;14.104;2023-04-27T13:08:38;101431.91;;;11.31;47.97
3122;BME280;1571;52.524;14.104;2023-04-27T13:11:07;101423.69;;;11.52;46.75
3122;BME280;1571;52.524;14.104;2023-04-27T13:13:37;101410.97;;;12.04;45.49
3122;BME280;1571;52.524;14.104;2023-04-27T13:16:05;101416.41;;;12.03;45.22
3122;BME280;1571;52.524;14.104;2023-04-27T13:18:34;101407.25;;;12.53;45.53